الصفحة الرئيسية
METAR-TAF:

METAR-TAF

مطار :

Antofagasta, تشيلي

دائرة عرض: 23-26S, خط طول: 070-26W, ارتفاع: 135 متر

مراقبة الطقس الحالي

تاريخ ووقت الإصدار 1ساعة و 3 دقيقة قبل الساعة 03:00UTC
ريح 7 عقدة من الجنوب
درجة الحرارة 15°درجة مئوية
الرطوبة 77%
ضغط 1014 hPa
الرؤية 10 كم أو أكثر
ملبد بالغيوم على ارتفاع 2000 قدم

METAR: SCFA 240300Z 19007KT 9999 OVC020 15/11 Q1014 NOSIG

زمن: 01:03 (04:03 UTC)

توقعات

تاريخ ووقت الإصدار 5ساعات و 12 دقيقة قبل الساعة 22:51UTC
التوقعات صالحة من24 الساعة 00 UTC إلى 24 الساعة 24 UTC
ريح 8 عقدة من الجنوب الغربي
الرؤية 10 كم أو أكثر
ملبد بالغيوم على ارتفاع 2000 قدم
أصبح
من 24 الساعة 02 UTC إلى 24 الساعة 04 UTC
ريح 4 عقدة من الجنوب
أصبح
من 24 الساعة 14 UTC إلى 24 الساعة 16 UTC
ريح 15 عقدة من الجنوب الغربي
غيوم متفرقة على ارتفاع 1700 قدم
أصبح
من 24 الساعة 22 UTC إلى 24 الساعة 24 UTC
ريح 8 عقدة من الجنوب
غيوم مفككة على ارتفاع 2000 قدم

TAF: SCFA 232251Z 2400/2424 22008KT 9999 OVC020 TN14/2406Z TX16/2417Z BECMG 2402/2404 17004KT BECMG 2414/2416 22015KT SCT017 BECMG 2422/2424 18008KT BKN020

أرصاد الطقس والتوقعات من أكثر من 4000 مطار (تقارير الطقس للمطار METAR والتنبؤ بالطقس بالمطارTAF).

المحطات المتاحة هي النقط الصفراء والحمراء على الخريطة.

حرك المؤشر فوق النقطة لمعرفة اسم المحطة.

ثم انقر لمعرفة أرصاد وتوقعات الطقس.

لتغيير الخارطة: اضغط على الأزرار الخضراء مع رمز الصليب الأسود للتكبير. على الزر الأخضر مع شرطة للتصغير، أو على الأسهم الخضراء للخرائط المجاورة.


METAR-TAF: